This is the latest recevied weather packets stored in our database for station/object W8CWV-13. If no packets are shown the sender has not sent any weather packets the latest 10 day(s).
| Time | Temp. | Humidity | Pressure | Rain* | Wind** | Luminosity | Snow |
|---|---|---|---|---|---|---|---|
| 1777900279 | 22.22° C | 100% | 1021.2 hPa | - | - | - | - |
| 1777899702 | 21.11° C | 100% | 1021.2 hPa | - | - | - | - |
| 1777899127 | 20.56° C | 100% | 1021.3 hPa | - | - | - | - |
| 1777898556 | 20° C | 100% | 1021.5 hPa | - | - | - | - |
| 1777897979 | 18.33° C | 100% | 1021.6 hPa | - | - | - | - |
| 1777897408 | 18.33° C | 100% | 1021.5 hPa | - | - | - | - |
| 1777896833 | 17.22° C | 100% | 1021.5 hPa | - | - | - | - |
| 1777896260 | 16.67° C | 100% | 1021.6 hPa | - | - | - | - |
| 1777895683 | 15.56° C | 100% | 1022.2 hPa | - | - | - | - |
| 1777895105 | 13.33° C | 100% | 1023.5 hPa | - | - | - | - |
| 1777893957 | 8.33° C | 100% | 1024.1 hPa | - | - | - | - |
| 1777893377 | 8.33° C | 100% | 1024.1 hPa | - | - | - | - |
| 1777892810 | 7.78° C | 100% | 1024.3 hPa | - | - | - | - |
| 1777892230 | 7.22° C | 100% | 1024.4 hPa | - | - | - | - |
| 1777891662 | 7.22° C | 100% | 1024.5 hPa | - | - | - | - |
| 1777891085 | 6.67° C | 100% | 1024.5 hPa | - | - | - | - |
| 1777890511 | 6.67° C | 100% | 1024.6 hPa | - | - | - | - |
| 1777889945 | 7.22° C | 100% | 1024.8 hPa | - | - | - | - |
| 1777889364 | 6.67° C | 100% | 1024.8 hPa | - | - | - | - |
| 1777888799 | 6.67° C | 100% | 1025 hPa | - | - | - | - |
| 1777888217 | 6.67° C | 100% | 1024.9 hPa | - | - | - | - |
| 1777887644 | 6.67° C | 100% | 1024.3 hPa | - | - | - | - |
| 1777887072 | 6.11° C | 100% | 1024.3 hPa | - | - | - | - |
| 1777886504 | 6.11° C | 100% | 1024.5 hPa | - | - | - | - |
| 1777885922 | 6.11° C | 100% | 1024.4 hPa | - | - | - | - |
* Rain since midnight (hover to see other rain measurements)
** Current wind speed in m/s (hover to see current wind gust speed)